sensor_id;sensor_type;location;lat;lon;timestamp;P1;durP1;ratioP1;P2;durP2;ratioP2
44120;SDS011;29783;52.504;13.478;2022-09-09T00:06:44;17.50;;;12.25;;
44120;SDS011;29783;52.504;13.478;2022-09-09T00:09:21;16.80;;;14.63;;
44120;SDS011;29783;52.504;13.478;2022-09-09T00:11:51;20.00;;;16.17;;
44120;SDS011;29783;52.504;13.478;2022-09-09T00:17:12;20.50;;;15.43;;
44120;SDS011;29783;52.504;13.478;2022-09-09T00:22:24;20.17;;;16.15;;
44120;SDS011;29783;52.504;13.478;2022-09-09T00:24:53;20.25;;;16.38;;
44120;SDS011;29783;52.504;13.478;2022-09-09T00:30:12;19.95;;;16.38;;
44120;SDS011;29783;52.504;13.478;2022-09-09T00:32:53;20.98;;;17.00;;
44120;SDS011;29783;52.504;13.478;2022-09-09T00:35:30;26.73;;;16.45;;
44120;SDS011;29783;52.504;13.478;2022-09-09T00:38:01;18.70;;;15.93;;
44120;SDS011;29783;52.504;13.478;2022-09-09T00:40:37;22.35;;;16.23;;
44120;SDS011;29783;52.504;13.478;2022-09-09T00:46:00;19.20;;;16.40;;
44120;SDS011;29783;52.504;13.478;2022-09-09T00:52:04;18.08;;;15.38;;
44120;SDS011;29783;52.504;13.478;2022-09-09T01:07:58;19.38;;;17.15;;
44120;SDS011;29783;52.504;13.478;2022-09-09T01:13:25;19.40;;;17.13;;
44120;SDS011;29783;52.504;13.478;2022-09-09T01:15:55;22.95;;;17.70;;
44120;SDS011;29783;52.504;13.478;2022-09-09T01:18:23;19.35;;;15.60;;
44120;SDS011;29783;52.504;13.478;2022-09-09T01:21:03;20.92;;;16.17;;
44120;SDS011;29783;52.504;13.478;2022-09-09T01:24:17;18.35;;;14.88;;
44120;SDS011;29783;52.504;13.478;2022-09-09T01:26:52;18.63;;;15.27;;
44120;SDS011;29783;52.504;13.478;2022-09-09T01:29:23;23.80;;;16.27;;
44120;SDS011;29783;52.504;13.478;2022-09-09T01:34:18;23.40;;;16.00;;
44120;SDS011;29783;52.504;13.478;2022-09-09T01:36:46;20.52;;;14.38;;
44120;SDS011;29783;52.504;13.478;2022-09-09T01:39:22;19.60;;;15.57;;
44120;SDS011;29783;52.504;13.478;2022-09-09T01:41:48;16.55;;;14.80;;
44120;SDS011;29783;52.504;13.478;2022-09-09T01:44:14;27.70;;;16.02;;
44120;SDS011;29783;52.504;13.478;2022-09-09T01:46:40;21.63;;;15.60;;
44120;SDS011;29783;52.504;13.478;2022-09-09T01:49:06;20.63;;;14.27;;
44120;SDS011;29783;52.504;13.478;2022-09-09T01:51:33;16.70;;;13.70;;
44120;SDS011;29783;52.504;13.478;2022-09-09T01:54:00;17.30;;;14.70;;
44120;SDS011;29783;52.504;13.478;2022-09-09T02:07:10;23.58;;;14.90;;
44120;SDS011;29783;52.504;13.478;2022-09-09T02:10:23;16.63;;;13.65;;
44120;SDS011;29783;52.504;13.478;2022-09-09T02:13:01;17.10;;;13.93;;
44120;SDS011;29783;52.504;13.478;2022-09-09T02:18:10;22.50;;;14.88;;
44120;SDS011;29783;52.504;13.478;2022-09-09T02:20:38;24.30;;;14.70;;
44120;SDS011;29783;52.504;13.478;2022-09-09T02:23:05;21.40;;;15.77;;
44120;SDS011;29783;52.504;13.478;2022-09-09T02:25:33;20.80;;;15.48;;
44120;SDS011;29783;52.504;13.478;2022-09-09T02:28:00;23.73;;;15.52;;
44120;SDS011;29783;52.504;13.478;2022-09-09T02:30:27;24.25;;;15.55;;
44120;SDS011;29783;52.504;13.478;2022-09-09T02:32:57;20.95;;;15.73;;
44120;SDS011;29783;52.504;13.478;2022-09-09T02:35:27;24.92;;;16.73;;
44120;SDS011;29783;52.504;13.478;2022-09-09T02:37:56;28.92;;;15.48;;
44120;SDS011;29783;52.504;13.478;2022-09-09T02:40:26;19.02;;;14.93;;
44120;SDS011;29783;52.504;13.478;2022-09-09T02:42:53;22.65;;;15.63;;
44120;SDS011;29783;52.504;13.478;2022-09-09T02:45:20;23.92;;;15.98;;
44120;SDS011;29783;52.504;13.478;2022-09-09T02:47:51;20.15;;;14.32;;
44120;SDS011;29783;52.504;13.478;2022-09-09T02:50:58;24.08;;;15.77;;
44120;SDS011;29783;52.504;13.478;2022-09-09T02:53:39;22.98;;;15.95;;
44120;SDS011;29783;52.504;13.478;2022-09-09T02:56:29;21.73;;;16.17;;
44120;SDS011;29783;52.504;13.478;2022-09-09T02:58:58;19.80;;;15.38;;
44120;SDS011;29783;52.504;13.478;2022-09-09T03:01:24;22.10;;;14.95;;
44120;SDS011;29783;52.504;13.478;2022-09-09T03:03:50;19.83;;;15.00;;
44120;SDS011;29783;52.504;13.478;2022-09-09T03:06:15;22.08;;;14.25;;
44120;SDS011;29783;52.504;13.478;2022-09-09T03:08:41;18.95;;;13.02;;
44120;SDS011;29783;52.504;13.478;2022-09-09T03:11:07;21.02;;;14.15;;
44120;SDS011;29783;52.504;13.478;2022-09-09T03:13:34;16.88;;;13.85;;
44120;SDS011;29783;52.504;13.478;2022-09-09T03:15:59;19.85;;;14.13;;
44120;SDS011;29783;52.504;13.478;2022-09-09T03:18:25;28.77;;;14.18;;
44120;SDS011;29783;52.504;13.478;2022-09-09T03:20:50;29.58;;;15.45;;
44120;SDS011;29783;52.504;13.478;2022-09-09T03:23:16;18.10;;;13.43;;
44120;SDS011;29783;52.504;13.478;2022-09-09T03:25:51;28.73;;;16.00;;
44120;SDS011;29783;52.504;13.478;2022-09-09T03:28:17;26.40;;;13.75;;
44120;SDS011;29783;52.504;13.478;2022-09-09T03:30:43;23.83;;;15.07;;
44120;SDS011;29783;52.504;13.478;2022-09-09T03:33:09;28.33;;;15.88;;
44120;SDS011;29783;52.504;13.478;2022-09-09T03:35:34;20.08;;;14.77;;
44120;SDS011;29783;52.504;13.478;2022-09-09T03:38:00;24.08;;;14.95;;
44120;SDS011;29783;52.504;13.478;2022-09-09T03:40:25;19.60;;;14.55;;
44120;SDS011;29783;52.504;13.478;2022-09-09T03:42:51;20.55;;;15.07;;
44120;SDS011;29783;52.504;13.478;2022-09-09T03:45:17;24.25;;;15.55;;
44120;SDS011;29783;52.504;13.478;2022-09-09T03:47:42;31.10;;;16.08;;
44120;SDS011;29783;52.504;13.478;2022-09-09T03:50:08;23.02;;;15.35;;
44120;SDS011;29783;52.504;13.478;2022-09-09T03:52:36;19.60;;;14.32;;
44120;SDS011;29783;52.504;13.478;2022-09-09T03:55:03;26.15;;;14.52;;
44120;SDS011;29783;52.504;13.478;2022-09-09T03:57:29;20.25;;;14.10;;
44120;SDS011;29783;52.504;13.478;2022-09-09T03:59:55;22.65;;;14.95;;
44120;SDS011;29783;52.504;13.478;2022-09-09T04:02:20;23.45;;;14.45;;
44120;SDS011;29783;52.504;13.478;2022-09-09T04:04:46;21.73;;;14.45;;
44120;SDS011;29783;52.504;13.478;2022-09-09T04:07:12;22.42;;;14.95;;
44120;SDS011;29783;52.504;13.478;2022-09-09T04:09:38;21.92;;;14.45;;
44120;SDS011;29783;52.504;13.478;2022-09-09T04:12:03;17.25;;;13.23;;
44120;SDS011;29783;52.504;13.478;2022-09-09T04:14:29;19.10;;;13.95;;
44120;SDS011;29783;52.504;13.478;2022-09-09T04:16:55;19.10;;;12.80;;
44120;SDS011;29783;52.504;13.478;2022-09-09T04:19:23;23.45;;;13.65;;
44120;SDS011;29783;52.504;13.478;2022-09-09T04:21:48;21.20;;;12.20;;
44120;SDS011;29783;52.504;13.478;2022-09-09T04:24:15;21.40;;;12.77;;
44120;SDS011;29783;52.504;13.478;2022-09-09T04:26:41;19.75;;;12.40;;
44120;SDS011;29783;52.504;13.478;2022-09-09T04:29:06;23.17;;;12.65;;
44120;SDS011;29783;52.504;13.478;2022-09-09T04:31:32;18.80;;;11.82;;
44120;SDS011;29783;52.504;13.478;2022-09-09T04:33:58;19.05;;;12.68;;
44120;SDS011;29783;52.504;13.478;2022-09-09T04:36:27;21.88;;;13.15;;
44120;SDS011;29783;52.504;13.478;2022-09-09T04:38:53;16.77;;;12.23;;
44120;SDS011;29783;52.504;13.478;2022-09-09T04:41:18;28.17;;;12.80;;
44120;SDS011;29783;52.504;13.478;2022-09-09T04:43:44;17.75;;;13.43;;
44120;SDS011;29783;52.504;13.478;2022-09-09T04:46:09;17.35;;;12.27;;
44120;SDS011;29783;52.504;13.478;2022-09-09T04:48:35;22.17;;;13.38;;
44120;SDS011;29783;52.504;13.478;2022-09-09T04:51:02;18.67;;;13.38;;
44120;SDS011;29783;52.504;13.478;2022-09-09T04:53:31;22.15;;;13.73;;
44120;SDS011;29783;52.504;13.478;2022-09-09T04:58:32;13.63;;;10.27;;
44120;SDS011;29783;52.504;13.478;2022-09-09T05:03:34;15.07;;;11.30;;
44120;SDS011;29783;52.504;13.478;2022-09-09T05:06:09;18.45;;;10.70;;
44120;SDS011;29783;52.504;13.478;2022-09-09T05:08:37;21.35;;;9.43;;
44120;SDS011;29783;52.504;13.478;2022-09-09T05:11:11;14.10;;;9.27;;
44120;SDS011;29783;52.504;13.478;2022-09-09T05:13:41;12.48;;;9.65;;
44120;SDS011;29783;52.504;13.478;2022-09-09T05:16:07;15.95;;;9.43;;
44120;SDS011;29783;52.504;13.478;2022-09-09T05:18:35;11.63;;;8.27;;
44120;SDS011;29783;52.504;13.478;2022-09-09T05:21:01;11.43;;;8.65;;
44120;SDS011;29783;52.504;13.478;2022-09-09T05:23:27;17.20;;;8.90;;
44120;SDS011;29783;52.504;13.478;2022-09-09T05:25:59;12.80;;;8.02;;
44120;SDS011;29783;52.504;13.478;2022-09-09T05:28:25;13.52;;;8.23;;
44120;SDS011;29783;52.504;13.478;2022-09-09T05:30:55;13.52;;;7.72;;
44120;SDS011;29783;52.504;13.478;2022-09-09T05:33:26;14.15;;;7.88;;
44120;SDS011;29783;52.504;13.478;2022-09-09T05:35:58;11.77;;;7.18;;
44120;SDS011;29783;52.504;13.478;2022-09-09T05:38:28;11.35;;;7.45;;
44120;SDS011;29783;52.504;13.478;2022-09-09T05:40:55;13.23;;;7.13;;
44120;SDS011;29783;52.504;13.478;2022-09-09T05:43:23;12.77;;;7.38;;
44120;SDS011;29783;52.504;13.478;2022-09-09T05:46:03;9.43;;;6.38;;
44120;SDS011;29783;52.504;13.478;2022-09-09T05:48:31;11.30;;;6.63;;
44120;SDS011;29783;52.504;13.478;2022-09-09T05:50:58;15.10;;;8.80;;
44120;SDS011;29783;52.504;13.478;2022-09-09T05:53:24;10.20;;;6.53;;
44120;SDS011;29783;52.504;13.478;2022-09-09T05:55:59;10.77;;;6.65;;
44120;SDS011;29783;52.504;13.478;2022-09-09T05:58:32;8.35;;;6.10;;
44120;SDS011;29783;52.504;13.478;2022-09-09T06:01:11;12.43;;;6.78;;
44120;SDS011;29783;52.504;13.478;2022-09-09T06:03:37;11.02;;;6.22;;
44120;SDS011;29783;52.504;13.478;2022-09-09T06:06:05;13.30;;;6.53;;
44120;SDS011;29783;52.504;13.478;2022-09-09T06:08:33;9.10;;;6.30;;
44120;SDS011;29783;52.504;13.478;2022-09-09T06:11:09;11.13;;;5.75;;
44120;SDS011;29783;52.504;13.478;2022-09-09T06:13:36;13.10;;;5.82;;
44120;SDS011;29783;52.504;13.478;2022-09-09T06:16:03;8.18;;;5.38;;
44120;SDS011;29783;52.504;13.478;2022-09-09T06:18:31;9.63;;;5.22;;
44120;SDS011;29783;52.504;13.478;2022-09-09T06:20:58;7.07;;;4.55;;
44120;SDS011;29783;52.504;13.478;2022-09-09T06:23:29;7.20;;;4.55;;
44120;SDS011;29783;52.504;13.478;2022-09-09T06:26:02;8.52;;;4.65;;
44120;SDS011;29783;52.504;13.478;2022-09-09T06:28:34;11.30;;;4.45;;
44120;SDS011;29783;52.504;13.478;2022-09-09T06:31:01;5.95;;;3.95;;
44120;SDS011;29783;52.504;13.478;2022-09-09T06:33:35;7.32;;;4.22;;
44120;SDS011;29783;52.504;13.478;2022-09-09T06:36:04;9.80;;;4.28;;
44120;SDS011;29783;52.504;13.478;2022-09-09T06:38:30;8.77;;;3.80;;
44120;SDS011;29783;52.504;13.478;2022-09-09T06:40:56;7.30;;;3.60;;
44120;SDS011;29783;52.504;13.478;2022-09-09T06:43:26;5.00;;;3.63;;
44120;SDS011;29783;52.504;13.478;2022-09-09T06:45:56;7.78;;;3.22;;
44120;SDS011;29783;52.504;13.478;2022-09-09T06:48:22;7.30;;;3.28;;
44120;SDS011;29783;52.504;13.478;2022-09-09T06:50:47;7.63;;;2.80;;
44120;SDS011;29783;52.504;13.478;2022-09-09T06:53:17;6.25;;;3.10;;
44120;SDS011;29783;52.504;13.478;2022-09-09T06:55:44;7.75;;;3.35;;
44120;SDS011;29783;52.504;13.478;2022-09-09T06:58:10;8.75;;;2.80;;
44120;SDS011;29783;52.504;13.478;2022-09-09T07:00:36;6.53;;;2.72;;
44120;SDS011;29783;52.504;13.478;2022-09-09T07:03:04;4.60;;;2.70;;
44120;SDS011;29783;52.504;13.478;2022-09-09T07:05:31;16.15;;;2.67;;
44120;SDS011;29783;52.504;13.478;2022-09-09T07:07:56;8.48;;;2.65;;
44120;SDS011;29783;52.504;13.478;2022-09-09T07:10:22;4.10;;;2.13;;
44120;SDS011;29783;52.504;13.478;2022-09-09T07:12:51;4.65;;;2.65;;
44120;SDS011;29783;52.504;13.478;2022-09-09T07:15:17;5.10;;;2.03;;
44120;SDS011;29783;52.504;13.478;2022-09-09T07:17:43;5.20;;;2.33;;
44120;SDS011;29783;52.504;13.478;2022-09-09T07:20:10;3.53;;;1.90;;
44120;SDS011;29783;52.504;13.478;2022-09-09T07:22:36;9.98;;;2.25;;
44120;SDS011;29783;52.504;13.478;2022-09-09T07:25:01;12.25;;;2.10;;
44120;SDS011;29783;52.504;13.478;2022-09-09T07:27:28;6.05;;;2.05;;
44120;SDS011;29783;52.504;13.478;2022-09-09T07:29:53;4.63;;;1.80;;
44120;SDS011;29783;52.504;13.478;2022-09-09T07:32:19;4.38;;;1.77;;
44120;SDS011;29783;52.504;13.478;2022-09-09T07:34:45;5.68;;;1.88;;
44120;SDS011;29783;52.504;13.478;2022-09-09T07:37:11;6.20;;;1.98;;
44120;SDS011;29783;52.504;13.478;2022-09-09T07:39:38;5.10;;;1.70;;
44120;SDS011;29783;52.504;13.478;2022-09-09T07:42:04;10.38;;;1.73;;
44120;SDS011;29783;52.504;13.478;2022-09-09T07:44:30;4.35;;;1.83;;
44120;SDS011;29783;52.504;13.478;2022-09-09T07:46:59;5.45;;;1.70;;
44120;SDS011;29783;52.504;13.478;2022-09-09T07:49:25;6.53;;;1.70;;
44120;SDS011;29783;52.504;13.478;2022-09-09T07:51:51;4.78;;;1.58;;
44120;SDS011;29783;52.504;13.478;2022-09-09T07:54:18;6.05;;;1.45;;
44120;SDS011;29783;52.504;13.478;2022-09-09T07:56:45;5.38;;;1.40;;
44120;SDS011;29783;52.504;13.478;2022-09-09T07:59:12;7.85;;;1.77;;
44120;SDS011;29783;52.504;13.478;2022-09-09T08:01:41;5.20;;;1.45;;
44120;SDS011;29783;52.504;13.478;2022-09-09T08:04:10;4.93;;;1.40;;
44120;SDS011;29783;52.504;13.478;2022-09-09T08:06:41;5.78;;;1.30;;
44120;SDS011;29783;52.504;13.478;2022-09-09T08:09:09;13.18;;;1.52;;
44120;SDS011;29783;52.504;13.478;2022-09-09T08:11:35;6.03;;;1.30;;
44120;SDS011;29783;52.504;13.478;2022-09-09T08:14:01;3.22;;;1.60;;
44120;SDS011;29783;52.504;13.478;2022-09-09T08:16:29;8.80;;;1.52;;
44120;SDS011;29783;52.504;13.478;2022-09-09T08:18:57;6.18;;;1.40;;
44120;SDS011;29783;52.504;13.478;2022-09-09T08:21:24;5.55;;;1.58;;
44120;SDS011;29783;52.504;13.478;2022-09-09T08:23:55;8.15;;;1.63;;
44120;SDS011;29783;52.504;13.478;2022-09-09T08:26:22;7.43;;;1.80;;
44120;SDS011;29783;52.504;13.478;2022-09-09T08:28:49;3.45;;;1.40;;
44120;SDS011;29783;52.504;13.478;2022-09-09T08:31:26;3.67;;;1.60;;
44120;SDS011;29783;52.504;13.478;2022-09-09T08:33:57;8.05;;;1.48;;
44120;SDS011;29783;52.504;13.478;2022-09-09T08:36:31;4.10;;;1.50;;
44120;SDS011;29783;52.504;13.478;2022-09-09T08:38:58;9.38;;;1.73;;
44120;SDS011;29783;52.504;13.478;2022-09-09T08:44:14;4.97;;;1.60;;
44120;SDS011;29783;52.504;13.478;2022-09-09T08:47:00;6.65;;;2.10;;
44120;SDS011;29783;52.504;13.478;2022-09-09T08:52:38;5.72;;;1.67;;
44120;SDS011;29783;52.504;13.478;2022-09-09T09:06:26;3.65;;;1.20;;
44120;SDS011;29783;52.504;13.478;2022-09-09T09:11:46;6.07;;;1.27;;
44120;SDS011;29783;52.504;13.478;2022-09-09T09:16:52;7.78;;;2.22;;
44120;SDS011;29783;52.504;13.478;2022-09-09T09:19:24;7.53;;;2.05;;
44120;SDS011;29783;52.504;13.478;2022-09-09T09:22:03;4.82;;;1.60;;
44120;SDS011;29783;52.504;13.478;2022-09-09T09:27:14;5.72;;;1.38;;
44120;SDS011;29783;52.504;13.478;2022-09-09T09:29:43;4.25;;;1.48;;
44120;SDS011;29783;52.504;13.478;2022-09-09T09:32:14;7.28;;;1.45;;
44120;SDS011;29783;52.504;13.478;2022-09-09T09:34:48;6.03;;;1.50;;
44120;SDS011;29783;52.504;13.478;2022-09-09T09:37:22;7.30;;;1.40;;
44120;SDS011;29783;52.504;13.478;2022-09-09T09:39:53;3.83;;;1.25;;
44120;SDS011;29783;52.504;13.478;2022-09-09T09:42:19;5.72;;;1.33;;
44120;SDS011;29783;52.504;13.478;2022-09-09T09:44:45;11.93;;;1.65;;
44120;SDS011;29783;52.504;13.478;2022-09-09T09:47:12;6.93;;;1.20;;
44120;SDS011;29783;52.504;13.478;2022-09-09T09:49:54;7.38;;;1.63;;
44120;SDS011;29783;52.504;13.478;2022-09-09T09:52:24;4.15;;;1.30;;
44120;SDS011;29783;52.504;13.478;2022-09-09T09:54:57;6.38;;;1.48;;
44120;SDS011;29783;52.504;13.478;2022-09-09T09:57:28;3.05;;;1.20;;
44120;SDS011;29783;52.504;13.478;2022-09-09T10:02:46;3.88;;;1.30;;
44120;SDS011;29783;52.504;13.478;2022-09-09T10:05:16;12.13;;;1.40;;
44120;SDS011;29783;52.504;13.478;2022-09-09T10:08:03;4.73;;;1.00;;
44120;SDS011;29783;52.504;13.478;2022-09-09T10:13:32;5.78;;;1.63;;
44120;SDS011;29783;52.504;13.478;2022-09-09T10:16:21;5.10;;;1.50;;
44120;SDS011;29783;52.504;13.478;2022-09-09T10:18:58;5.20;;;1.27;;
44120;SDS011;29783;52.504;13.478;2022-09-09T10:26:51;5.82;;;0.90;;
44120;SDS011;29783;52.504;13.478;2022-09-09T10:43:17;5.35;;;1.15;;
44120;SDS011;29783;52.504;13.478;2022-09-09T10:46:15;1.98;;;0.65;;
44120;SDS011;29783;52.504;13.478;2022-09-09T10:54:59;4.30;;;1.10;;
44120;SDS011;29783;52.504;13.478;2022-09-09T10:57:42;4.90;;;1.20;;
44120;SDS011;29783;52.504;13.478;2022-09-09T11:02:39;5.78;;;1.20;;
44120;SDS011;29783;52.504;13.478;2022-09-09T11:05:28;4.72;;;1.05;;
44120;SDS011;29783;52.504;13.478;2022-09-09T11:08:20;3.55;;;1.10;;
44120;SDS011;29783;52.504;13.478;2022-09-09T11:14:05;4.47;;;1.13;;
44120;SDS011;29783;52.504;13.478;2022-09-09T11:16:38;3.35;;;1.10;;
44120;SDS011;29783;52.504;13.478;2022-09-09T11:19:24;5.85;;;1.10;;
44120;SDS011;29783;52.504;13.478;2022-09-09T11:22:05;3.80;;;1.15;;
44120;SDS011;29783;52.504;13.478;2022-09-09T11:24:39;7.53;;;1.55;;
44120;SDS011;29783;52.504;13.478;2022-09-09T11:30:05;3.90;;;1.08;;
44120;SDS011;29783;52.504;13.478;2022-09-09T11:36:03;5.22;;;0.85;;
44120;SDS011;29783;52.504;13.478;2022-09-09T11:38:45;2.50;;;0.75;;
44120;SDS011;29783;52.504;13.478;2022-09-09T11:41:12;3.92;;;1.20;;
44120;SDS011;29783;52.504;13.478;2022-09-09T11:43:47;5.88;;;1.05;;
44120;SDS011;29783;52.504;13.478;2022-09-09T11:46:17;4.20;;;0.80;;
44120;SDS011;29783;52.504;13.478;2022-09-09T11:49:25;4.60;;;0.93;;
44120;SDS011;29783;52.504;13.478;2022-09-09T11:51:51;2.50;;;0.93;;
44120;SDS011;29783;52.504;13.478;2022-09-09T11:54:28;6.13;;;1.10;;
44120;SDS011;29783;52.504;13.478;2022-09-09T11:56:54;2.60;;;0.90;;
44120;SDS011;29783;52.504;13.478;2022-09-09T11:59:21;5.53;;;0.90;;
44120;SDS011;29783;52.504;13.478;2022-09-09T12:02:34;2.88;;;0.98;;
44120;SDS011;29783;52.504;13.478;2022-09-09T12:05:09;6.68;;;1.23;;
44120;SDS011;29783;52.504;13.478;2022-09-09T12:07:49;3.55;;;0.80;;
44120;SDS011;29783;52.504;13.478;2022-09-09T12:10:26;2.40;;;0.73;;
44120;SDS011;29783;52.504;13.478;2022-09-09T12:15:56;3.60;;;0.90;;
44120;SDS011;29783;52.504;13.478;2022-09-09T12:18:24;3.05;;;0.77;;
44120;SDS011;29783;52.504;13.478;2022-09-09T12:21:21;4.80;;;0.90;;
44120;SDS011;29783;52.504;13.478;2022-09-09T12:24:03;2.90;;;0.68;;
44120;SDS011;29783;52.504;13.478;2022-09-09T12:37:50;3.33;;;0.70;;
44120;SDS011;29783;52.504;13.478;2022-09-09T12:42:57;2.83;;;0.85;;
44120;SDS011;29783;52.504;13.478;2022-09-09T12:45:27;3.75;;;0.80;;
44120;SDS011;29783;52.504;13.478;2022-09-09T12:50:31;1.65;;;0.60;;
44120;SDS011;29783;52.504;13.478;2022-09-09T12:53:04;4.85;;;0.70;;
44120;SDS011;29783;52.504;13.478;2022-09-09T12:55:35;2.63;;;0.80;;
44120;SDS011;29783;52.504;13.478;2022-09-09T12:58:03;3.40;;;0.63;;
44120;SDS011;29783;52.504;13.478;2022-09-09T13:00:31;1.13;;;0.60;;
44120;SDS011;29783;52.504;13.478;2022-09-09T13:02:59;5.60;;;1.13;;
44120;SDS011;29783;52.504;13.478;2022-09-09T13:05:34;3.42;;;0.98;;
44120;SDS011;29783;52.504;13.478;2022-09-09T13:08:10;1.88;;;0.70;;
44120;SDS011;29783;52.504;13.478;2022-09-09T13:10:38;3.50;;;1.08;;
44120;SDS011;29783;52.504;13.478;2022-09-09T13:13:15;3.85;;;0.80;;
44120;SDS011;29783;52.504;13.478;2022-09-09T13:15:52;3.17;;;0.90;;
44120;SDS011;29783;52.504;13.478;2022-09-09T13:18:22;4.03;;;1.10;;
44120;SDS011;29783;52.504;13.478;2022-09-09T13:20:50;6.95;;;1.30;;
44120;SDS011;29783;52.504;13.478;2022-09-09T13:23:17;10.23;;;0.90;;
44120;SDS011;29783;52.504;13.478;2022-09-09T13:25:55;2.70;;;0.80;;
44120;SDS011;29783;52.504;13.478;2022-09-09T13:28:23;1.95;;;0.80;;
44120;SDS011;29783;52.504;13.478;2022-09-09T13:36:10;4.93;;;0.80;;
44120;SDS011;29783;52.504;13.478;2022-09-09T13:38:38;5.95;;;0.80;;
44120;SDS011;29783;52.504;13.478;2022-09-09T13:41:21;2.28;;;0.73;;
44120;SDS011;29783;52.504;13.478;2022-09-09T13:43:50;3.05;;;1.02;;
44120;SDS011;29783;52.504;13.478;2022-09-09T13:49:18;2.58;;;0.73;;
44120;SDS011;29783;52.504;13.478;2022-09-09T13:51:49;6.68;;;0.93;;
44120;SDS011;29783;52.504;13.478;2022-09-09T13:54:17;4.85;;;1.00;;
44120;SDS011;29783;52.504;13.478;2022-09-09T13:56:45;4.45;;;0.88;;
44120;SDS011;29783;52.504;13.478;2022-09-09T13:59:15;3.80;;;0.70;;
44120;SDS011;29783;52.504;13.478;2022-09-09T14:01:43;5.13;;;0.90;;
44120;SDS011;29783;52.504;13.478;2022-09-09T14:04:09;2.22;;;0.73;;
44120;SDS011;29783;52.504;13.478;2022-09-09T14:06:35;5.28;;;0.60;;
44120;SDS011;29783;52.504;13.478;2022-09-09T14:09:04;1.60;;;0.63;;
44120;SDS011;29783;52.504;13.478;2022-09-09T14:11:31;9.98;;;0.82;;
44120;SDS011;29783;52.504;13.478;2022-09-09T14:13:56;5.57;;;1.00;;
44120;SDS011;29783;52.504;13.478;2022-09-09T14:16:22;5.35;;;3.63;;
44120;SDS011;29783;52.504;13.478;2022-09-09T14:18:47;6.43;;;0.90;;
44120;SDS011;29783;52.504;13.478;2022-09-09T14:21:13;7.15;;;0.90;;
44120;SDS011;29783;52.504;13.478;2022-09-09T14:23:40;5.07;;;0.80;;
44120;SDS011;29783;52.504;13.478;2022-09-09T14:26:06;5.90;;;1.08;;
44120;SDS011;29783;52.504;13.478;2022-09-09T14:28:33;3.90;;;1.05;;
44120;SDS011;29783;52.504;13.478;2022-09-09T14:31:00;3.97;;;0.98;;
44120;SDS011;29783;52.504;13.478;2022-09-09T14:33:26;4.53;;;0.95;;
44120;SDS011;29783;52.504;13.478;2022-09-09T14:35:57;2.03;;;0.80;;
44120;SDS011;29783;52.504;13.478;2022-09-09T14:38:24;2.10;;;0.73;;
44120;SDS011;29783;52.504;13.478;2022-09-09T14:40:53;4.22;;;1.02;;
44120;SDS011;29783;52.504;13.478;2022-09-09T14:43:18;8.52;;;0.98;;
44120;SDS011;29783;52.504;13.478;2022-09-09T14:45:45;2.13;;;0.88;;
44120;SDS011;29783;52.504;13.478;2022-09-09T14:48:10;7.65;;;1.02;;
44120;SDS011;29783;52.504;13.478;2022-09-09T14:50:36;10.43;;;0.90;;
44120;SDS011;29783;52.504;13.478;2022-09-09T14:53:04;5.82;;;1.00;;
44120;SDS011;29783;52.504;13.478;2022-09-09T14:55:30;4.15;;;1.15;;
44120;SDS011;29783;52.504;13.478;2022-09-09T14:57:56;8.45;;;1.25;;
44120;SDS011;29783;52.504;13.478;2022-09-09T15:00:22;3.00;;;0.93;;
44120;SDS011;29783;52.504;13.478;2022-09-09T15:02:47;3.17;;;1.00;;
44120;SDS011;29783;52.504;13.478;2022-09-09T15:05:16;8.63;;;1.35;;
44120;SDS011;29783;52.504;13.478;2022-09-09T15:07:42;4.10;;;1.25;;
44120;SDS011;29783;52.504;13.478;2022-09-09T15:10:07;3.95;;;0.93;;
44120;SDS011;29783;52.504;13.478;2022-09-09T15:12:34;4.32;;;0.85;;
44120;SDS011;29783;52.504;13.478;2022-09-09T15:15:00;4.45;;;0.90;;
44120;SDS011;29783;52.504;13.478;2022-09-09T15:17:25;6.03;;;0.88;;
44120;SDS011;29783;52.504;13.478;2022-09-09T15:19:52;4.32;;;0.98;;
44120;SDS011;29783;52.504;13.478;2022-09-09T15:22:18;2.08;;;0.70;;
44120;SDS011;29783;52.504;13.478;2022-09-09T15:24:44;3.88;;;1.10;;
44120;SDS011;29783;52.504;13.478;2022-09-09T15:27:09;4.28;;;1.13;;
44120;SDS011;29783;52.504;13.478;2022-09-09T15:29:35;4.72;;;0.98;;
44120;SDS011;29783;52.504;13.478;2022-09-09T15:32:00;3.75;;;0.98;;
44120;SDS011;29783;52.504;13.478;2022-09-09T15:34:26;6.22;;;1.25;;
44120;SDS011;29783;52.504;13.478;2022-09-09T15:36:51;3.25;;;1.00;;
44120;SDS011;29783;52.504;13.478;2022-09-09T15:39:17;5.80;;;0.90;;
44120;SDS011;29783;52.504;13.478;2022-09-09T15:41:44;7.30;;;0.95;;
44120;SDS011;29783;52.504;13.478;2022-09-09T15:44:10;2.00;;;0.80;;
44120;SDS011;29783;52.504;13.478;2022-09-09T15:46:41;4.40;;;0.60;;
44120;SDS011;29783;52.504;13.478;2022-09-09T15:49:21;4.00;;;0.70;;
44120;SDS011;29783;52.504;13.478;2022-09-09T15:51:51;1.45;;;0.60;;
44120;SDS011;29783;52.504;13.478;2022-09-09T15:54:23;6.82;;;1.10;;
44120;SDS011;29783;52.504;13.478;2022-09-09T15:56:50;4.20;;;0.80;;
44120;SDS011;29783;52.504;13.478;2022-09-09T15:59:21;2.95;;;0.80;;
44120;SDS011;29783;52.504;13.478;2022-09-09T16:01:48;2.28;;;0.75;;
44120;SDS011;29783;52.504;13.478;2022-09-09T16:04:16;3.10;;;0.90;;
44120;SDS011;29783;52.504;13.478;2022-09-09T16:06:48;2.70;;;0.70;;
44120;SDS011;29783;52.504;13.478;2022-09-09T16:09:18;9.63;;;1.60;;
44120;SDS011;29783;52.504;13.478;2022-09-09T16:11:43;4.95;;;1.00;;
44120;SDS011;29783;52.504;13.478;2022-09-09T16:14:09;5.55;;;1.02;;
44120;SDS011;29783;52.504;13.478;2022-09-09T16:16:35;6.47;;;1.40;;
44120;SDS011;29783;52.504;13.478;2022-09-09T16:19:08;2.25;;;0.85;;
44120;SDS011;29783;52.504;13.478;2022-09-09T16:21:37;6.40;;;1.00;;
44120;SDS011;29783;52.504;13.478;2022-09-09T16:24:05;5.00;;;1.00;;
44120;SDS011;29783;52.504;13.478;2022-09-09T16:26:32;3.88;;;0.95;;
44120;SDS011;29783;52.504;13.478;2022-09-09T16:29:00;3.95;;;1.08;;
44120;SDS011;29783;52.504;13.478;2022-09-09T16:31:26;2.85;;;1.00;;
44120;SDS011;29783;52.504;13.478;2022-09-09T16:33:53;2.53;;;1.20;;
44120;SDS011;29783;52.504;13.478;2022-09-09T16:36:23;6.25;;;1.98;;
44120;SDS011;29783;52.504;13.478;2022-09-09T16:38:54;8.13;;;1.17;;
44120;SDS011;29783;52.504;13.478;2022-09-09T16:41:20;1.95;;;0.80;;
44120;SDS011;29783;52.504;13.478;2022-09-09T16:43:46;3.47;;;1.08;;
44120;SDS011;29783;52.504;13.478;2022-09-09T16:46:13;7.10;;;1.20;;
44120;SDS011;29783;52.504;13.478;2022-09-09T16:48:41;5.70;;;1.40;;
44120;SDS011;29783;52.504;13.478;2022-09-09T16:51:11;4.25;;;1.27;;
44120;SDS011;29783;52.504;13.478;2022-09-09T16:53:41;5.13;;;1.30;;
44120;SDS011;29783;52.504;13.478;2022-09-09T16:56:08;8.32;;;1.50;;
44120;SDS011;29783;52.504;13.478;2022-09-09T16:58:38;3.38;;;1.75;;
44120;SDS011;29783;52.504;13.478;2022-09-09T17:01:03;4.20;;;1.35;;
44120;SDS011;29783;52.504;13.478;2022-09-09T17:03:30;6.57;;;1.27;;
44120;SDS011;29783;52.504;13.478;2022-09-09T17:05:57;5.35;;;1.10;;
44120;SDS011;29783;52.504;13.478;2022-09-09T17:08:26;9.50;;;2.42;;
44120;SDS011;29783;52.504;13.478;2022-09-09T17:10:54;4.72;;;1.35;;
44120;SDS011;29783;52.504;13.478;2022-09-09T17:13:19;1.85;;;1.05;;
44120;SDS011;29783;52.504;13.478;2022-09-09T17:15:45;6.22;;;1.05;;